Time;durP1;ratioP1;P1;durP2;ratioP2;P2;SDS_P1;SDS_P2;PMS_P1;PMS_P2;Temp;Humidity;BMP_temperature;BMP_pressure;BME280_temperature;BME280_humidity;BME280_pressure;Samples;Min_cycle;Max_cycle;Signal;HPM_P1;HPM_P2
2023/09/25 00:01:21;;;;;;;3.87;2.50;;;;;;;;;;4936058;29;20180;-71
2023/09/25 00:04:27;;;;;;;4.57;2.63;;;;;;;;;;4936134;29;20184;-71
2023/09/25 00:07:31;;;;;;;3.27;2.57;;;;;;;;;;4935128;29;20181;-71
2023/09/25 00:10:36;;;;;;;3.63;2.17;;;;;;;;;;4936208;29;20177;-71
2023/09/25 00:13:40;;;;;;;6.17;2.40;;;;;;;;;;4935525;29;20232;-71
2023/09/25 00:16:44;;;;;;;4.03;2.57;;;;;;;;;;4934858;29;20535;-71
2023/09/25 00:19:48;;;;;;;4.57;2.47;;;;;;;;;;4936138;29;20188;-71
2023/09/25 00:22:53;;;;;;;4.03;2.20;;;;;;;;;;4935771;29;20220;-71
2023/09/25 00:26:02;;;;;;;4.20;2.70;;;;;;;;;;4936056;29;20180;-71
2023/09/25 00:29:06;;;;;;;4.00;2.63;;;;;;;;;;4938705;29;20184;-71
2023/09/25 00:32:10;;;;;;;3.73;2.73;;;;;;;;;;4939496;29;20580;-71
2023/09/25 00:35:14;;;;;;;4.43;2.40;;;;;;;;;;4939027;29;20184;-71
2023/09/25 00:38:19;;;;;;;2.93;2.63;;;;;;;;;;4938150;29;20184;-71
2023/09/25 00:41:24;;;;;;;3.23;2.40;;;;;;;;;;4938657;29;20180;-71
2023/09/25 00:44:28;;;;;;;3.03;2.67;;;;;;;;;;4938897;29;20188;-71
2023/09/25 00:47:32;;;;;;;3.80;2.40;;;;;;;;;;4938186;29;20196;-71
2023/09/25 00:50:36;;;;;;;4.60;2.20;;;;;;;;;;4938209;29;20184;-71
2023/09/25 00:53:41;;;;;;;3.30;2.43;;;;;;;;;;4938899;29;20216;-71
2023/09/25 00:56:46;;;;;;;5.13;2.27;;;;;;;;;;4938144;29;20184;-71
2023/09/25 00:59:52;;;;;;;4.60;2.50;;;;;;;;;;4938927;29;20184;-71
2023/09/25 01:02:56;;;;;;;4.50;2.33;;;;;;;;;;4927136;29;20223;-71
2023/09/25 01:06:01;;;;;;;3.33;2.03;;;;;;;;;;4938060;29;20188;-71
2023/09/25 01:09:08;;;;;;;2.77;1.90;;;;;;;;;;4938038;29;20177;-71
2023/09/25 01:12:13;;;;;;;3.37;2.57;;;;;;;;;;4937533;29;20703;-71
2023/09/25 01:15:17;;;;;;;5.20;2.63;;;;;;;;;;4938028;29;20212;-71
2023/09/25 01:18:21;;;;;;;3.50;2.53;;;;;;;;;;4938738;29;20188;-71
2023/09/25 01:21:26;;;;;;;3.60;2.57;;;;;;;;;;4938369;29;20242;-71
2023/09/25 01:24:31;;;;;;;6.53;2.33;;;;;;;;;;4937385;29;20180;-71
2023/09/25 01:27:35;;;;;;;5.90;2.77;;;;;;;;;;4937572;29;20188;-71
2023/09/25 01:30:39;;;;;;;3.33;2.90;;;;;;;;;;4937797;29;20184;-71
2023/09/25 01:33:43;;;;;;;4.33;3.10;;;;;;;;;;4937349;29;20680;-71
2023/09/25 01:36:47;;;;;;;3.83;2.73;;;;;;;;;;4937137;29;20192;-71
2023/09/25 01:39:51;;;;;;;4.13;2.60;;;;;;;;;;4936252;29;20188;-71
2023/09/25 01:42:55;;;;;;;2.90;2.47;;;;;;;;;;4936960;29;20219;-71
2023/09/25 01:45:59;;;;;;;4.20;3.23;;;;;;;;;;4937271;29;20181;-71
2023/09/25 01:49:03;;;;;;;3.50;2.60;;;;;;;;;;4937556;29;20183;-71
2023/09/25 01:52:08;;;;;;;4.40;2.90;;;;;;;;;;4937581;29;20215;-71
2023/09/25 01:55:12;;;;;;;4.73;2.70;;;;;;;;;;4937055;29;20216;-71
2023/09/25 01:58:16;;;;;;;2.93;2.40;;;;;;;;;;4936810;29;20180;-71
2023/09/25 02:01:20;;;;;;;6.03;2.83;;;;;;;;;;4937120;29;20513;-71
2023/09/25 02:04:24;;;;;;;5.00;2.37;;;;;;;;;;4936716;29;20536;-71
2023/09/25 02:07:28;;;;;;;3.87;2.40;;;;;;;;;;4937962;29;20620;-71
2023/09/25 02:10:35;;;;;;;4.00;2.40;;;;;;;;;;4936867;29;20192;-71
2023/09/25 02:13:39;;;;;;;4.57;2.90;;;;;;;;;;4936302;29;20573;-71
2023/09/25 02:16:43;;;;;;;2.97;2.67;;;;;;;;;;4937121;29;20180;-71
2023/09/25 02:19:47;;;;;;;3.07;2.57;;;;;;;;;;4936468;29;20180;-71
2023/09/25 02:22:51;;;;;;;3.40;2.80;;;;;;;;;;4936986;29;20224;-71
2023/09/25 02:25:56;;;;;;;4.20;2.60;;;;;;;;;;4936490;29;20185;-71
2023/09/25 02:28:59;;;;;;;6.60;2.77;;;;;;;;;;4936480;29;20192;-71
2023/09/25 02:32:03;;;;;;;3.03;2.70;;;;;;;;;;4936607;29;20223;-71
2023/09/25 02:35:08;;;;;;;4.93;2.50;;;;;;;;;;4936377;29;20216;-71
2023/09/25 02:38:12;;;;;;;4.20;2.50;;;;;;;;;;4936069;29;20189;-71
2023/09/25 02:41:16;;;;;;;3.47;2.57;;;;;;;;;;4937242;29;20541;-71
2023/09/25 02:44:20;;;;;;;4.30;2.60;;;;;;;;;;4937027;29;20518;-71
2023/09/25 02:47:25;;;;;;;5.50;2.80;;;;;;;;;;4936372;29;20188;-71
2023/09/25 02:50:29;;;;;;;4.90;2.77;;;;;;;;;;4937055;29;20184;-71
2023/09/25 02:53:33;;;;;;;3.80;2.63;;;;;;;;;;4936159;29;20564;-71
2023/09/25 02:56:37;;;;;;;2.73;2.40;;;;;;;;;;4935986;29;20188;-71
2023/09/25 02:59:41;;;;;;;3.73;2.60;;;;;;;;;;4936715;29;20184;-71
2023/09/25 03:02:45;;;;;;;4.50;2.43;;;;;;;;;;4936630;29;20228;-71
2023/09/25 03:05:49;;;;;;;4.17;2.70;;;;;;;;;;4935850;29;20184;-71
2023/09/25 03:08:54;;;;;;;4.00;2.80;;;;;;;;;;4924873;29;20188;-71
2023/09/25 03:11:59;;;;;;;5.40;3.47;;;;;;;;;;4936101;29;20235;-71
2023/09/25 03:15:05;;;;;;;3.40;2.63;;;;;;;;;;4936735;29;20216;-71
2023/09/25 03:18:11;;;;;;;4.10;2.80;;;;;;;;;;4935400;29;20192;-71
2023/09/25 03:21:16;;;;;;;3.13;2.63;;;;;;;;;;4936300;29;20192;-71
2023/09/25 03:24:19;;;;;;;3.20;2.70;;;;;;;;;;4936511;29;20180;-71
2023/09/25 03:27:24;;;;;;;3.27;2.70;;;;;;;;;;4935307;29;20525;-71
2023/09/25 03:30:28;;;;;;;4.70;2.80;;;;;;;;;;4924910;29;20192;-71
2023/09/25 03:33:32;;;;;;;3.90;2.90;;;;;;;;;;4936164;29;20223;-71
2023/09/25 03:36:36;;;;;;;4.30;2.80;;;;;;;;;;4935700;29;20180;-71
2023/09/25 03:39:40;;;;;;;4.00;2.40;;;;;;;;;;4935404;29;20188;-71
2023/09/25 03:42:44;;;;;;;3.83;2.43;;;;;;;;;;4935251;29;20223;-71
2023/09/25 03:45:49;;;;;;;3.37;3.00;;;;;;;;;;4936202;29;20184;-71
2023/09/25 03:48:53;;;;;;;3.97;2.97;;;;;;;;;;4935897;29;20184;-71
2023/09/25 03:51:57;;;;;;;3.30;3.00;;;;;;;;;;4935007;29;20568;-71
2023/09/25 03:55:01;;;;;;;3.43;2.80;;;;;;;;;;4935041;29;20675;-71
2023/09/25 03:58:06;;;;;;;4.00;3.10;;;;;;;;;;4935308;29;20180;-71
2023/09/25 04:01:10;;;;;;;8.53;3.07;;;;;;;;;;4935691;29;20192;-71
2023/09/25 04:04:14;;;;;;;4.23;3.20;;;;;;;;;;4939243;29;20640;-71
2023/09/25 04:07:19;;;;;;;4.00;3.50;;;;;;;;;;4939902;29;20184;-71
2023/09/25 04:10:23;;;;;;;4.13;3.10;;;;;;;;;;4939557;29;20188;-71
2023/09/25 04:13:27;;;;;;;4.63;3.50;;;;;;;;;;4939293;29;20231;-71
2023/09/25 04:16:33;;;;;;;5.10;3.43;;;;;;;;;;4939649;29;20180;-71
2023/09/25 04:19:36;;;;;;;7.97;3.80;;;;;;;;;;4939298;29;20184;-71
2023/09/25 04:22:41;;;;;;;5.20;3.20;;;;;;;;;;4939586;29;20220;-71
2023/09/25 04:25:51;;;;;;;5.43;3.67;;;;;;;;;;4939202;29;20181;-71
2023/09/25 04:28:57;;;;;;;5.00;3.80;;;;;;;;;;4939193;29;20184;-71
2023/09/25 04:32:03;;;;;;;5.47;3.87;;;;;;;;;;4939533;29;20224;-72
2023/09/25 04:35:07;;;;;;;4.83;3.60;;;;;;;;;;4939507;29;20212;-71
2023/09/25 04:38:12;;;;;;;5.23;3.37;;;;;;;;;;4939521;29;20184;-71
2023/09/25 04:41:16;;;;;;;7.10;4.03;;;;;;;;;;4938983;29;20533;-71
2023/09/25 04:44:20;;;;;;;4.97;4.13;;;;;;;;;;4939347;29;20184;-71
2023/09/25 04:47:25;;;;;;;5.73;4.00;;;;;;;;;;4938885;29;20180;-71
2023/09/25 04:50:29;;;;;;;6.37;3.73;;;;;;;;;;4927255;29;20184;-71
2023/09/25 04:53:34;;;;;;;7.70;4.10;;;;;;;;;;4938888;29;20216;-71
2023/09/25 04:56:38;;;;;;;7.63;3.57;;;;;;;;;;4937855;29;20180;-71
2023/09/25 04:59:43;;;;;;;5.47;3.70;;;;;;;;;;4938913;29;20188;-71
2023/09/25 05:02:49;;;;;;;5.27;4.07;;;;;;;;;;4938676;29;20232;-71
2023/09/25 05:05:52;;;;;;;7.80;3.93;;;;;;;;;;4938519;29;20180;-72
2023/09/25 05:08:56;;;;;;;5.30;3.60;;;;;;;;;;4938855;29;20188;-71
2023/09/25 05:12:00;;;;;;;6.80;4.27;;;;;;;;;;4938061;29;20231;-71
2023/09/25 05:15:07;;;;;;;7.10;3.27;;;;;;;;;;4937016;29;20203;-71
2023/09/25 05:18:11;;;;;;;5.33;3.40;;;;;;;;;;4938552;29;20622;-71
2023/09/25 05:21:16;;;;;;;4.87;4.00;;;;;;;;;;4938106;29;20521;-71
2023/09/25 05:24:20;;;;;;;7.10;3.87;;;;;;;;;;4937967;29;20642;-71
2023/09/25 05:27:24;;;;;;;6.20;3.70;;;;;;;;;;4937413;29;20180;-71
2023/09/25 05:30:28;;;;;;;8.50;3.70;;;;;;;;;;4937992;29;20184;-71
2023/09/25 05:33:33;;;;;;;8.73;4.20;;;;;;;;;;4937330;29;20580;-71
2023/09/25 05:36:37;;;;;;;6.60;4.07;;;;;;;;;;4938082;29;20212;-71
2023/09/25 05:39:42;;;;;;;5.77;4.03;;;;;;;;;;4937859;29;20648;-71
2023/09/25 05:42:48;;;;;;;8.40;4.90;;;;;;;;;;4937959;29;20699;-71
2023/09/25 05:45:52;;;;;;;6.13;4.67;;;;;;;;;;4937266;29;20173;-71
2023/09/25 05:48:57;;;;;;;9.60;5.27;;;;;;;;;;4937683;29;20180;-71
2023/09/25 05:52:01;;;;;;;8.77;4.77;;;;;;;;;;4937487;29;20695;-71
2023/09/25 05:55:06;;;;;;;8.10;4.50;;;;;;;;;;4937760;29;20211;-71
2023/09/25 05:58:10;;;;;;;8.17;4.53;;;;;;;;;;4937547;29;20533;-71
2023/09/25 06:01:14;;;;;;;9.50;5.57;;;;;;;;;;4937302;29;20636;-71
2023/09/25 06:04:18;;;;;;;8.90;5.63;;;;;;;;;;4937476;29;20188;-71
2023/09/25 06:07:23;;;;;;;7.47;5.00;;;;;;;;;;4937589;29;20172;-71
2023/09/25 06:10:27;;;;;;;9.57;5.10;;;;;;;;;;4937374;29;20188;-71
2023/09/25 06:13:31;;;;;;;8.10;4.70;;;;;;;;;;4937027;29;20232;-71
2023/09/25 06:16:41;;;;;;;7.47;4.90;;;;;;;;;;4936781;29;20216;-71
2023/09/25 06:19:46;;;;;;;9.63;5.00;;;;;;;;;;4937417;29;20184;-71
2023/09/25 06:22:50;;;;;;;7.57;5.57;;;;;;;;;;4937104;29;20565;-71
2023/09/25 06:25:54;;;;;;;15.37;5.00;;;;;;;;;;4936718;29;20180;-71
2023/09/25 06:28:58;;;;;;;8.03;5.20;;;;;;;;;;4937525;29;20184;-71
2023/09/25 06:32:03;;;;;;;15.17;5.20;;;;;;;;;;4936264;29;20215;-71
2023/09/25 06:35:07;;;;;;;15.00;6.07;;;;;;;;;;4936945;29;20212;-71
2023/09/25 06:38:11;;;;;;;11.50;5.50;;;;;;;;;;4936029;29;20180;-71
2023/09/25 06:41:15;;;;;;;12.03;5.83;;;;;;;;;;4937289;29;20664;-71
2023/09/25 06:44:20;;;;;;;8.47;5.47;;;;;;;;;;4936316;29;20190;-71
2023/09/25 06:47:24;;;;;;;8.90;4.70;;;;;;;;;;4936642;29;20177;-71
2023/09/25 06:50:28;;;;;;;5.43;4.53;;;;;;;;;;4937147;29;20184;-71
2023/09/25 06:53:33;;;;;;;8.00;4.20;;;;;;;;;;4925207;29;20220;-71
2023/09/25 06:56:36;;;;;;;6.67;4.17;;;;;;;;;;4937001;29;20255;-71
2023/09/25 06:59:41;;;;;;;4.53;3.93;;;;;;;;;;4936697;29;20633;-71
2023/09/25 07:02:46;;;;;;;6.90;4.10;;;;;;;;;;4936710;29;20696;-71
2023/09/25 07:05:50;;;;;;;7.97;4.13;;;;;;;;;;4936607;29;20177;-71
2023/09/25 07:08:54;;;;;;;4.63;3.73;;;;;;;;;;4936426;29;20644;-71
2023/09/25 07:11:59;;;;;;;7.33;3.77;;;;;;;;;;4935594;29;20231;-71
2023/09/25 07:15:04;;;;;;;5.93;3.73;;;;;;;;;;4936510;29;20192;-71
2023/09/25 07:18:10;;;;;;;4.07;3.20;;;;;;;;;;4935740;29;20180;-71
2023/09/25 07:21:15;;;;;;;5.73;2.93;;;;;;;;;;4936158;29;20180;-71
2023/09/25 07:24:19;;;;;;;3.37;3.07;;;;;;;;;;4936059;29;20188;-71
2023/09/25 07:27:23;;;;;;;4.73;3.10;;;;;;;;;;4936873;29;20180;-71
2023/09/25 07:30:27;;;;;;;4.17;3.03;;;;;;;;;;4936128;29;20547;-71
2023/09/25 07:33:32;;;;;;;4.17;2.77;;;;;;;;;;4935973;29;20604;-71
2023/09/25 07:36:36;;;;;;;4.73;2.73;;;;;;;;;;4936293;29;20204;-71
2023/09/25 07:39:40;;;;;;;4.30;2.77;;;;;;;;;;4935450;29;20184;-71
2023/09/25 07:42:45;;;;;;;4.13;3.10;;;;;;;;;;4935905;29;20223;-71
2023/09/25 07:45:52;;;;;;;7.83;2.93;;;;;;;;;;4935701;29;20180;-71
2023/09/25 07:48:58;;;;;;;3.60;3.23;;;;;;;;;;4935470;29;20180;-71
2023/09/25 07:52:04;;;;;;;6.10;2.90;;;;;;;;;;4935744;29;20219;-71
2023/09/25 07:55:11;;;;;;;6.97;2.80;;;;;;;;;;4936050;29;20188;-71
2023/09/25 07:58:15;;;;;;;2.80;2.47;;;;;;;;;;4934996;29;20188;-71
2023/09/25 08:01:19;;;;;;;4.87;2.70;;;;;;;;;;4935955;29;20636;-71
2023/09/25 08:04:23;;;;;;;4.20;2.73;;;;;;;;;;4936121;29;20180;-71
2023/09/25 08:07:28;;;;;;;13.33;2.93;;;;;;;;;;4935746;29;20181;-71
2023/09/25 08:10:34;;;;;;;5.27;3.00;;;;;;;;;;4935631;29;20546;-71
2023/09/25 08:13:38;;;;;;;2.73;2.50;;;;;;;;;;4934804;29;20208;-71
2023/09/25 08:16:42;;;;;;;3.93;2.70;;;;;;;;;;4936086;29;20212;-71
2023/09/25 08:19:52;;;;;;;5.17;3.20;;;;;;;;;;4935577;29;20188;-71
2023/09/25 08:22:57;;;;;;;4.33;2.67;;;;;;;;;;4935773;29;20219;-71
2023/09/25 08:26:01;;;;;;;3.83;2.90;;;;;;;;;;4935044;29;20177;-71
2023/09/25 08:29:06;;;;;;;3.87;2.73;;;;;;;;;;4935883;29;20624;-71
2023/09/25 08:32:10;;;;;;;5.23;2.80;;;;;;;;;;4934876;29;20220;-71
2023/09/25 08:35:15;;;;;;;4.23;2.50;;;;;;;;;;4935433;29;20189;-71
2023/09/25 08:38:19;;;;;;;4.17;2.90;;;;;;;;;;4935497;29;20529;-71
2023/09/25 08:41:24;;;;;;;3.47;2.67;;;;;;;;;;4935654;29;20188;-71
2023/09/25 08:44:29;;;;;;;3.80;2.30;;;;;;;;;;4935726;29;20184;-71
2023/09/25 08:47:34;;;;;;;4.30;2.60;;;;;;;;;;4935593;29;20181;-71
2023/09/25 08:50:39;;;;;;;4.77;2.30;;;;;;;;;;4939076;29;20188;-71
2023/09/25 08:53:44;;;;;;;3.30;1.90;;;;;;;;;;4939225;29;20184;-71
2023/09/25 08:56:49;;;;;;;3.87;2.70;;;;;;;;;;4939404;29;20212;-71
2023/09/25 08:59:53;;;;;;;4.60;2.20;;;;;;;;;;4939369;29;20180;-71
2023/09/25 09:02:57;;;;;;;6.97;2.63;;;;;;;;;;4938785;29;20221;-71
2023/09/25 09:06:01;;;;;;;3.37;2.20;;;;;;;;;;4938943;29;20185;-71
2023/09/25 09:09:07;;;;;;;4.90;2.10;;;;;;;;;;4938829;29;20189;-71
2023/09/25 09:12:12;;;;;;;2.73;1.60;;;;;;;;;;4938639;29;20233;-71
2023/09/25 09:15:26;;;;;;;3.00;2.33;;;;;;;;;;4938897;29;20189;-71
2023/09/25 09:18:32;;;;;;;3.73;2.10;;;;;;;;;;4938442;29;20186;-71
2023/09/25 09:21:36;;;;;;;5.67;2.10;;;;;;;;;;4938593;29;20220;-71
2023/09/25 09:24:43;;;;;;;2.53;1.92;;;;;;;;;;4938351;29;20534;-71
2023/09/25 09:27:47;;;;;;;6.30;1.97;;;;;;;;;;4938684;29;20185;-71
2023/09/25 09:30:51;;;;;;;3.83;2.20;;;;;;;;;;4938320;29;20192;-71
2023/09/25 09:33:55;;;;;;;2.28;1.70;;;;;;;;;;4937941;29;20188;-71
2023/09/25 09:37:00;;;;;;;5.40;1.90;;;;;;;;;;4937843;29;20673;-71
2023/09/25 09:40:11;;;;;;;3.50;1.65;;;;;;;;;;4937846;29;20183;-71
2023/09/25 09:43:16;;;;;;;3.38;1.67;;;;;;;;;;4937758;29;20696;-71
2023/09/25 09:46:26;;;;;;;7.20;2.22;;;;;;;;;;4938211;29;20182;-71
2023/09/25 09:49:34;;;;;;;3.33;1.90;;;;;;;;;;4937966;29;20184;-70
2023/09/25 09:52:39;;;;;;;2.60;1.75;;;;;;;;;;4938171;29;20220;-70
2023/09/25 09:55:47;;;;;;;2.63;1.75;;;;;;;;;;4936698;29;20264;-71
2023/09/25 09:58:54;;;;;;;3.55;1.90;;;;;;;;;;4938064;29;20625;-71
2023/09/25 10:01:59;;;;;;;3.67;1.63;;;;;;;;;;4936867;29;20242;-70
2023/09/25 10:05:04;;;;;;;2.50;1.65;;;;;;;;;;4937465;29;20182;-71
2023/09/25 10:08:10;;;;;;;3.15;2.08;;;;;;;;;;4937652;29;20182;-71
2023/09/25 10:11:16;;;;;;;3.20;1.75;;;;;;;;;;4937128;29;20191;-71
2023/09/25 10:14:21;;;;;;;1.95;1.70;;;;;;;;;;4936460;29;20189;-71
2023/09/25 10:17:37;;;;;;;2.38;1.58;;;;;;;;;;4937262;29;20209;-71
2023/09/25 10:20:45;;;;;;;2.50;1.45;;;;;;;;;;4936886;29;20186;-71
2023/09/25 10:23:51;;;;;;;1.95;1.40;;;;;;;;;;4937251;29;20183;-71
2023/09/25 10:26:56;;;;;;;2.60;1.75;;;;;;;;;;4936719;29;20181;-71
2023/09/25 10:30:08;;;;;;;5.40;2.55;;;;;;;;;;4937183;29;20527;-71
2023/09/25 10:33:12;;;;;;;2.80;1.65;;;;;;;;;;4936847;29;20220;-72
2023/09/25 10:36:16;;;;;;;2.00;1.40;;;;;;;;;;4937341;29;20555;-71
2023/09/25 10:39:20;;;;;;;5.68;1.40;;;;;;;;;;4936224;29;20187;-71
2023/09/25 10:42:24;;;;;;;2.67;1.30;;;;;;;;;;4936750;29;20217;-71
2023/09/25 10:45:30;;;;;;;2.08;1.58;;;;;;;;;;4936939;29;20188;-71
2023/09/25 10:48:34;;;;;;;5.60;1.70;;;;;;;;;;4936537;29;20183;-71
2023/09/25 10:51:38;;;;;;;3.83;1.60;;;;;;;;;;4936990;29;20217;-71
2023/09/25 10:54:42;;;;;;;3.13;1.40;;;;;;;;;;4936601;29;20495;-71
2023/09/25 10:57:46;;;;;;;1.90;1.50;;;;;;;;;;4936439;29;20208;-71
2023/09/25 11:00:50;;;;;;;3.17;1.40;;;;;;;;;;4936595;29;20185;-71
2023/09/25 11:03:57;;;;;;;3.78;1.73;;;;;;;;;;4936630;29;20190;-71
2023/09/25 11:07:01;;;;;;;2.33;1.77;;;;;;;;;;4936555;29;20182;-71
2023/09/25 11:10:08;;;;;;;13.23;1.60;;;;;;;;;;4936296;29;20191;-71
2023/09/25 11:13:12;;;;;;;3.37;1.60;;;;;;;;;;4936033;29;20234;-70
2023/09/25 11:16:17;;;;;;;2.17;1.20;;;;;;;;;;4935510;29;20190;-71
2023/09/25 11:19:21;;;;;;;22.63;2.80;;;;;;;;;;4936407;29;20186;-71
2023/09/25 11:22:27;;;;;;;4.63;1.90;;;;;;;;;;4935506;29;20224;-71
2023/09/25 11:25:42;;;;;;;4.10;1.70;;;;;;;;;;4935256;29;20530;-71
2023/09/25 11:28:53;;;;;;;2.57;1.50;;;;;;;;;;4936496;29;20179;-71
2023/09/25 11:31:58;;;;;;;4.37;1.80;;;;;;;;;;4936074;29;20590;-71
2023/09/25 11:35:03;;;;;;;3.07;1.60;;;;;;;;;;4936002;29;20186;-71
2023/09/25 11:38:17;;;;;;;2.83;1.33;;;;;;;;;;4936056;29;20213;-71
2023/09/25 11:41:21;;;;;;;2.17;1.40;;;;;;;;;;4935819;29;20176;-71
2023/09/25 11:44:25;;;;;;;2.33;1.50;;;;;;;;;;4935917;29;20187;-71
2023/09/25 11:47:29;;;;;;;2.17;1.70;;;;;;;;;;4935907;29;20535;-71
2023/09/25 11:50:35;;;;;;;1.60;1.50;;;;;;;;;;4935877;29;20194;-71
2023/09/25 11:53:39;;;;;;;9.13;2.40;;;;;;;;;;4936350;29;20632;-71
2023/09/25 11:56:43;;;;;;;2.80;1.43;;;;;;;;;;4936069;29;20208;-71
2023/09/25 11:59:47;;;;;;;6.57;1.57;;;;;;;;;;4936338;29;20635;-71
2023/09/25 12:02:51;;;;;;;2.77;1.60;;;;;;;;;;4935816;29;20226;-71
2023/09/25 12:05:56;;;;;;;4.63;1.37;;;;;;;;;;4936006;29;20620;-71
2023/09/25 12:09:10;;;;;;;2.00;1.53;;;;;;;;;;4935997;29;20184;-71
2023/09/25 12:12:14;;;;;;;2.70;1.20;;;;;;;;;;4935763;29;20565;-71
2023/09/25 12:15:18;;;;;;;3.90;1.73;;;;;;;;;;4935910;29;20185;-71
2023/09/25 12:18:23;;;;;;;29.13;3.07;;;;;;;;;;4935594;29;20563;-71
2023/09/25 12:21:28;;;;;;;1.77;1.30;;;;;;;;;;4935601;29;20200;-71
2023/09/25 12:24:31;;;;;;;3.37;1.40;;;;;;;;;;4937754;29;20667;-71
2023/09/25 12:27:36;;;;;;;7.03;1.73;;;;;;;;;;4939784;29;20187;-71
2023/09/25 12:30:40;;;;;;;1.98;1.42;;;;;;;;;;4939598;29;20191;-71
2023/09/25 12:33:45;;;;;;;2.35;1.55;;;;;;;;;;4939158;29;20181;-71
2023/09/25 12:36:49;;;;;;;2.03;1.35;;;;;;;;;;4939351;29;20215;-71
2023/09/25 12:39:53;;;;;;;2.95;1.60;;;;;;;;;;4939128;29;20185;-71
2023/09/25 12:42:57;;;;;;;1.48;1.25;;;;;;;;;;4938976;29;20220;-71
2023/09/25 12:46:01;;;;;;;2.47;1.20;;;;;;;;;;4938979;29;20635;-71
2023/09/25 12:49:05;;;;;;;2.30;1.48;;;;;;;;;;4939137;29;20641;-71
2023/09/25 12:52:09;;;;;;;1.98;1.30;;;;;;;;;;4937982;29;20699;-71
2023/09/25 12:55:13;;;;;;;6.57;2.80;;;;;;;;;;4939108;29;20183;-71
2023/09/25 12:58:18;;;;;;;7.97;1.83;;;;;;;;;;4939183;29;20548;-71
2023/09/25 13:01:23;;;;;;;2.75;1.27;;;;;;;;;;4938847;29;20190;-71
2023/09/25 13:04:27;;;;;;;2.58;1.40;;;;;;;;;;4938678;29;20191;-71
2023/09/25 13:07:32;;;;;;;4.20;1.40;;;;;;;;;;4938827;29;20182;-71
2023/09/25 13:10:36;;;;;;;2.47;1.40;;;;;;;;;;4938528;29;20184;-71
2023/09/25 13:13:39;;;;;;;4.47;1.38;;;;;;;;;;4939130;29;20210;-71
2023/09/25 13:16:44;;;;;;;2.22;1.15;;;;;;;;;;4938311;29;20190;-71
2023/09/25 13:19:48;;;;;;;1.85;1.33;;;;;;;;;;4938582;29;20188;-71
2023/09/25 13:22:53;;;;;;;4.90;1.40;;;;;;;;;;4938258;29;20563;-71
2023/09/25 13:25:57;;;;;;;2.22;1.27;;;;;;;;;;4938459;29;20181;-71
2023/09/25 13:29:01;;;;;;;1.63;1.10;;;;;;;;;;4938424;29;20182;-71
2023/09/25 13:32:05;;;;;;;6.15;1.75;;;;;;;;;;4938261;29;20223;-71
2023/09/25 13:35:10;;;;;;;2.03;1.42;;;;;;;;;;4936259;29;20229;-71
2023/09/25 13:38:14;;;;;;;3.25;1.45;;;;;;;;;;4938224;29;20215;-71
2023/09/25 13:41:18;;;;;;;1.45;1.20;;;;;;;;;;4937110;29;20192;-71
2023/09/25 13:44:22;;;;;;;2.60;1.50;;;;;;;;;;4938193;29;20182;-72
2023/09/25 13:47:27;;;;;;;3.92;1.30;;;;;;;;;;4936994;29;20181;-71
2023/09/25 13:50:34;;;;;;;2.75;1.30;;;;;;;;;;4926755;29;20187;-71
2023/09/25 13:53:38;;;;;;;2.20;1.58;;;;;;;;;;4938317;29;20185;-71
2023/09/25 13:56:43;;;;;;;1.70;1.23;;;;;;;;;;4937986;29;20195;-71
2023/09/25 13:59:47;;;;;;;4.50;1.40;;;;;;;;;;4938118;29;20613;-71
2023/09/25 14:02:51;;;;;;;4.90;1.40;;;;;;;;;;4937486;29;20227;-71
2023/09/25 14:06:01;;;;;;;1.63;1.40;;;;;;;;;;4937493;29;20185;-71
2023/09/25 14:09:08;;;;;;;2.55;1.40;;;;;;;;;;4937584;29;20178;-71
2023/09/25 14:12:12;;;;;;;2.38;1.55;;;;;;;;;;4937387;29;20230;-71
2023/09/25 14:15:17;;;;;;;2.38;1.50;;;;;;;;;;4937601;29;20183;-71
2023/09/25 14:18:21;;;;;;;2.87;1.70;;;;;;;;;;4937148;29;20211;-71
2023/09/25 14:21:25;;;;;;;1.80;1.37;;;;;;;;;;4937417;29;20183;-71
2023/09/25 14:24:30;;;;;;;4.33;1.40;;;;;;;;;;4936429;29;20187;-71
2023/09/25 14:27:34;;;;;;;9.53;1.60;;;;;;;;;;4936318;29;20185;-71
2023/09/25 14:30:38;;;;;;;6.53;1.43;;;;;;;;;;4937346;29;20643;-71
2023/09/25 14:33:44;;;;;;;2.87;1.50;;;;;;;;;;4936513;29;20187;-71
2023/09/25 14:36:49;;;;;;;3.30;1.80;;;;;;;;;;4937198;29;20189;-71
2023/09/25 14:39:53;;;;;;;1.70;1.50;;;;;;;;;;4937162;29;20531;-71
2023/09/25 14:43:03;;;;;;;13.87;2.10;;;;;;;;;;4936213;29;20217;-71
2023/09/25 14:46:08;;;;;;;1.67;1.53;;;;;;;;;;4936345;29;20666;-71
2023/09/25 14:49:12;;;;;;;1.77;1.40;;;;;;;;;;4937027;29;20193;-71
2023/09/25 14:52:16;;;;;;;2.67;1.60;;;;;;;;;;4936060;29;20227;-71
2023/09/25 14:55:20;;;;;;;6.33;1.97;;;;;;;;;;4936797;29;20185;-71
2023/09/25 14:58:25;;;;;;;3.87;1.70;;;;;;;;;;4935685;29;20212;-71
2023/09/25 15:01:29;;;;;;;5.70;1.63;;;;;;;;;;4936671;29;20189;-71
2023/09/25 15:04:34;;;;;;;1.90;1.63;;;;;;;;;;4936573;29;20188;-71
2023/09/25 15:07:39;;;;;;;2.03;1.33;;;;;;;;;;4936015;29;20648;-71
2023/09/25 15:10:43;;;;;;;3.60;1.90;;;;;;;;;;4936656;29;20649;-71
2023/09/25 15:13:47;;;;;;;2.73;1.67;;;;;;;;;;4936428;29;20664;-71
2023/09/25 15:16:52;;;;;;;4.43;1.90;;;;;;;;;;4936491;29;20186;-71
2023/09/25 15:19:58;;;;;;;2.57;1.50;;;;;;;;;;4936483;29;20180;-71
2023/09/25 15:23:02;;;;;;;2.57;1.73;;;;;;;;;;4936550;29;20229;-71
2023/09/25 15:26:06;;;;;;;4.03;1.90;;;;;;;;;;4935652;29;20190;-71
2023/09/25 15:29:10;;;;;;;7.00;1.83;;;;;;;;;;4936306;29;20182;-71
2023/09/25 15:32:14;;;;;;;2.90;1.93;;;;;;;;;;4936266;29;20215;-71
2023/09/25 15:35:20;;;;;;;3.13;1.70;;;;;;;;;;4936052;29;20189;-72
2023/09/25 15:38:24;;;;;;;6.67;2.10;;;;;;;;;;4936469;29;20208;-72
2023/09/25 15:41:29;;;;;;;4.10;1.70;;;;;;;;;;4936233;29;20188;-72
2023/09/25 15:44:33;;;;;;;7.10;1.97;;;;;;;;;;4935164;29;20530;-72
2023/09/25 15:47:37;;;;;;;8.87;2.33;;;;;;;;;;4935142;29;20189;-72
2023/09/25 15:50:41;;;;;;;6.17;2.27;;;;;;;;;;4936112;29;20180;-72
2023/09/25 15:53:45;;;;;;;7.90;2.20;;;;;;;;;;4936063;29;20184;-72
2023/09/25 15:56:49;;;;;;;2.87;2.10;;;;;;;;;;4936114;29;20188;-72
2023/09/25 15:59:53;;;;;;;3.70;2.50;;;;;;;;;;4938794;29;20660;-72
2023/09/25 16:02:57;;;;;;;3.97;2.23;;;;;;;;;;4939807;29;20219;-72
2023/09/25 16:06:01;;;;;;;2.53;2.07;;;;;;;;;;4940280;29;20188;-71
2023/09/25 16:09:05;;;;;;;3.17;1.80;;;;;;;;;;4940271;29;20176;-72
2023/09/25 16:12:10;;;;;;;8.83;1.77;;;;;;;;;;4939301;29;20711;-71
2023/09/25 16:15:14;;;;;;;2.00;1.80;;;;;;;;;;4939186;29;20188;-71
2023/09/25 16:18:18;;;;;;;2.73;2.00;;;;;;;;;;4939882;29;20668;-72
2023/09/25 16:21:22;;;;;;;2.93;2.00;;;;;;;;;;4939626;29;20632;-71
2023/09/25 16:24:26;;;;;;;2.17;1.77;;;;;;;;;;4939563;29;20183;-71
2023/09/25 16:27:31;;;;;;;3.17;2.23;;;;;;;;;;4939536;29;20184;-71
2023/09/25 16:30:36;;;;;;;3.03;2.10;;;;;;;;;;4938972;29;20184;-72
2023/09/25 16:33:41;;;;;;;3.60;1.80;;;;;;;;;;4939357;29;20636;-71
2023/09/25 16:36:45;;;;;;;3.53;2.20;;;;;;;;;;4939700;29;20621;-71
2023/09/25 16:39:49;;;;;;;3.33;2.00;;;;;;;;;;4939314;29;20216;-71
2023/09/25 16:42:53;;;;;;;2.23;2.03;;;;;;;;;;4938498;29;20220;-71
2023/09/25 16:45:57;;;;;;;4.50;2.27;;;;;;;;;;4939231;29;20188;-71
2023/09/25 16:49:01;;;;;;;3.93;2.37;;;;;;;;;;4939182;29;20188;-71
2023/09/25 16:52:06;;;;;;;3.57;2.20;;;;;;;;;;4938810;29;20219;-71
2023/09/25 16:55:10;;;;;;;4.00;2.90;;;;;;;;;;4938904;29;20184;-71
2023/09/25 16:58:18;;;;;;;4.23;3.17;;;;;;;;;;4938888;29;20216;-71
2023/09/25 17:01:22;;;;;;;7.57;2.57;;;;;;;;;;4939329;29;20180;-71
2023/09/25 17:04:26;;;;;;;4.80;2.93;;;;;;;;;;4927093;29;20184;-71
2023/09/25 17:07:32;;;;;;;3.97;2.90;;;;;;;;;;4938497;29;20188;-71
2023/09/25 17:10:37;;;;;;;4.93;2.87;;;;;;;;;;4937526;29;20185;-71
2023/09/25 17:13:42;;;;;;;6.20;2.60;;;;;;;;;;4938456;29;20208;-71
2023/09/25 17:16:46;;;;;;;3.30;2.70;;;;;;;;;;4937528;29;20176;-71
2023/09/25 17:19:50;;;;;;;5.27;3.23;;;;;;;;;;4938176;29;20552;-71
2023/09/25 17:22:54;;;;;;;3.90;2.60;;;;;;;;;;4938773;29;20223;-71
2023/09/25 17:25:58;;;;;;;3.17;2.70;;;;;;;;;;4938694;29;20624;-71
2023/09/25 17:29:03;;;;;;;3.63;3.20;;;;;;;;;;4938378;29;20176;-71
2023/09/25 17:32:07;;;;;;;3.50;2.90;;;;;;;;;;4938046;29;20573;-71
2023/09/25 17:35:11;;;;;;;3.63;3.30;;;;;;;;;;4938373;29;20184;-71
2023/09/25 17:38:15;;;;;;;3.43;3.07;;;;;;;;;;4937596;29;20188;-71
2023/09/25 17:41:20;;;;;;;7.10;3.80;;;;;;;;;;4937820;29;20530;-71
2023/09/25 17:44:24;;;;;;;4.43;3.50;;;;;;;;;;4937092;29;20180;-71
2023/09/25 17:47:29;;;;;;;5.13;3.87;;;;;;;;;;4938014;29;20184;-71
2023/09/25 17:50:33;;;;;;;5.07;3.73;;;;;;;;;;4937966;29;20184;-71
2023/09/25 17:53:37;;;;;;;5.00;4.03;;;;;;;;;;4937633;29;20184;-71
2023/09/25 17:56:42;;;;;;;4.23;3.63;;;;;;;;;;4936899;29;20188;-71
2023/09/25 17:59:47;;;;;;;4.20;3.80;;;;;;;;;;4937456;29;20208;-72
2023/09/25 18:02:51;;;;;;;6.53;4.27;;;;;;;;;;4936867;29;20576;-72
2023/09/25 18:05:55;;;;;;;4.77;4.10;;;;;;;;;;4937057;29;20188;-71
2023/09/25 18:08:59;;;;;;;4.63;4.13;;;;;;;;;;4937330;29;20180;-71
2023/09/25 18:12:03;;;;;;;4.63;3.80;;;;;;;;;;4936637;29;20231;-71
2023/09/25 18:15:09;;;;;;;3.70;3.40;;;;;;;;;;4936434;29;20184;-71
2023/09/25 18:18:13;;;;;;;4.63;3.90;;;;;;;;;;4937621;29;20188;-71
2023/09/25 18:21:17;;;;;;;4.43;3.90;;;;;;;;;;4936307;29;20518;-71
2023/09/25 18:24:21;;;;;;;4.67;4.03;;;;;;;;;;4937335;29;20189;-71
2023/09/25 18:27:27;;;;;;;4.23;3.83;;;;;;;;;;4937554;29;20620;-72